Time;durP1;ratioP1;P1;durP2;ratioP2;P2;SDS_P1;SDS_P2;PMS_P1;PMS_P2;Temp;Humidity;BMP_temperature;BMP_pressure;BME280_temperature;BME280_humidity;BME280_pressure;Samples;Min_cycle;Max_cycle;Signal;HPM_P1;HPM_P2
2022/01/17 00:00:01;;;;;;;60.27;41.63;;;;;;;2.86;56.65;95061.69;4991229;28;20197;-78
2022/01/17 00:02:30;;;;;;;74.40;44.38;;;;;;;2.66;57.55;95055.72;5023565;28;20184;-78
2022/01/17 00:04:56;;;;;;;66.05;41.75;;;;;;;2.69;57.12;95058.03;5013130;28;20286;-77
2022/01/17 00:07:21;;;;;;;56.90;39.23;;;;;;;3.03;56.50;95054.19;5014796;28;20660;-77
2022/01/17 00:09:47;;;;;;;58.63;39.27;;;;;;;2.86;56.54;95063.47;5011481;28;20516;-77
2022/01/17 00:12:12;;;;;;;60.40;38.53;;;;;;;2.47;57.53;95061.69;5008709;28;20188;-78
2022/01/17 00:14:42;;;;;;;51.23;36.97;;;;;;;2.87;56.55;95058.16;5028692;28;20184;-78
2022/01/17 00:19:43;;;;;;;59.10;38.88;;;;;;;2.67;56.90;95072.03;5028989;28;20156;-79
2022/01/17 00:22:09;;;;;;;60.85;33.90;;;;;;;2.77;57.21;95065.09;5011342;28;20185;-78
2022/01/17 00:24:35;;;;;;;61.58;42.40;;;;;;;2.50;58.13;95060.59;5023609;28;20232;-79
2022/01/17 00:27:00;;;;;;;53.10;37.33;;;;;;;2.56;57.95;95061.81;5009462;28;20651;-78
2022/01/17 00:29:27;;;;;;;57.13;38.87;;;;;;;2.40;58.01;95063.16;4991624;28;20215;-78
2022/01/17 00:31:52;;;;;;;66.72;41.97;;;;;;;2.51;57.91;95068.19;5010495;28;20662;-78
2022/01/17 00:34:18;;;;;;;66.67;45.87;;;;;;;2.64;57.49;95067.13;5028270;28;20180;-78
2022/01/17 00:36:43;;;;;;;65.37;44.70;;;;;;;2.90;57.02;95068.22;5028097;28;20199;-77
2022/01/17 00:39:09;;;;;;;72.57;43.80;;;;;;;3.02;56.93;95070.69;5028377;28;20180;-78
2022/01/17 00:41:35;;;;;;;67.63;44.03;;;;;;;3.10;55.70;95073.38;5027969;28;20199;-78
2022/01/17 00:44:01;;;;;;;68.77;44.40;;;;;;;2.76;56.98;95068.63;5010772;28;20215;-77
2022/01/17 00:46:27;;;;;;;66.33;45.43;;;;;;;3.09;56.50;95069.16;5028258;28;20485;-78
2022/01/17 00:48:52;;;;;;;58.17;42.97;;;;;;;3.18;56.08;95064.94;5028096;28;20423;-78
2022/01/17 00:51:19;;;;;;;52.73;38.30;;;;;;;3.04;56.11;95063.59;5028269;28;20176;-79
2022/01/17 00:53:44;;;;;;;61.30;41.85;;;;;;;2.18;58.96;95065.97;5010195;28;20220;-78
2022/01/17 00:56:10;;;;;;;67.57;43.40;;;;;;;2.47;57.52;95055.69;5026537;28;20203;-78
2022/01/17 00:58:35;;;;;;;62.40;40.50;;;;;;;2.96;56.32;95045.34;5010052;28;20192;-78
2022/01/17 01:01:01;;;;;;;63.20;43.03;;;;;;;2.76;56.49;95055.72;5027793;28;20215;-77
2022/01/17 01:03:26;;;;;;;58.17;40.30;;;;;;;2.61;57.68;95047.53;5010168;28;20529;-77
2022/01/17 01:05:52;;;;;;;59.10;40.90;;;;;;;2.56;57.68;95054.88;5027778;28;20215;-77
2022/01/17 01:08:17;;;;;;;58.20;39.90;;;;;;;2.58;57.81;95045.25;5028432;28;20183;-77
2022/01/17 01:10:43;;;;;;;62.90;40.77;;;;;;;2.60;57.83;95052.84;5028017;28;20191;-76
2022/01/17 01:13:09;;;;;;;64.33;39.77;;;;;;;2.62;57.66;95038.84;5010482;28;20195;-77
2022/01/17 01:15:57;;;;;;;67.70;39.20;;;;;;;2.84;57.35;95045.50;5010122;28;20175;-77
2022/01/17 01:29:27;;;;;;;64.50;37.23;;;;;;;2.74;57.56;95037.75;5027923;28;20485;-77
2022/01/17 01:32:02;;;;;;;58.93;38.03;;;;;;;2.71;56.87;95027.72;5009746;28;20419;-78
2022/01/17 01:34:41;;;;;;;54.10;35.93;;;;;;;2.81;56.99;95022.53;5009727;28;20492;-77
2022/01/17 01:37:06;;;;;;;58.40;37.45;;;;;;;2.73;57.54;95030.13;5009040;28;20404;-78
2022/01/17 01:39:33;;;;;;;63.10;39.20;;;;;;;2.49;58.05;95031.38;5027311;28;20595;-77
2022/01/17 01:42:00;;;;;;;58.10;39.23;;;;;;;2.38;58.17;95030.69;5009264;28;20199;-78
2022/01/17 01:44:27;;;;;;;51.15;37.00;;;;;;;2.13;58.73;95040.56;5009143;28;20506;-76
2022/01/17 01:46:55;;;;;;;52.17;34.10;;;;;;;2.31;58.10;95026.03;5008905;28;20318;-78
2022/01/17 01:49:21;;;;;;;60.38;39.55;;;;;;;2.29;58.60;95032.28;5027355;28;20439;-78
2022/01/17 01:51:48;;;;;;;56.47;34.90;;;;;;;2.33;58.36;95031.06;5026599;28;20275;-77
2022/01/17 01:54:14;;;;;;;55.38;33.25;;;;;;;2.28;58.29;95022.94;5009625;28;20192;-78
2022/01/17 01:56:43;;;;;;;49.10;35.30;;;;;;;1.87;59.07;95027.31;5010225;28;20184;-78
2022/01/17 01:59:10;;;;;;;41.50;20.13;;;;;;;2.27;58.50;95008.38;5027987;28;20179;-78
2022/01/17 02:01:36;;;;;;;56.28;33.90;;;;;;;2.40;58.17;95019.25;5027445;28;20196;-78
2022/01/17 02:04:02;;;;;;;48.53;33.92;;;;;;;2.21;58.81;95017.47;5026804;28;20550;-77
2022/01/17 02:06:28;;;;;;;52.58;36.33;;;;;;;2.47;58.27;95010.03;5009440;28;20243;-78
2022/01/17 02:08:53;;;;;;;52.03;34.00;;;;;;;2.57;57.27;95017.78;5027141;28;20549;-78
2022/01/17 02:11:19;;;;;;;50.20;34.90;;;;;;;2.47;57.60;95006.63;5027908;28;20252;-78
2022/01/17 02:13:46;;;;;;;53.50;33.90;;;;;;;2.67;57.21;95007.44;5027605;28;20211;-78
2022/01/17 02:16:14;;;;;;;48.13;33.35;;;;;;;2.78;57.15;94999.53;5025524;28;20272;-78
2022/01/17 02:18:44;;;;;;;47.60;34.35;;;;;;;2.60;57.18;94999.44;5026894;28;20211;-78
2022/01/17 02:23:56;;;;;;;44.45;30.92;;;;;;;2.49;57.97;94987.47;5017296;28;20483;-78
2022/01/17 02:26:40;;;;;;;53.93;34.90;;;;;;;2.55;57.35;94991.25;4990637;28;20220;-78
2022/01/17 02:29:06;;;;;;;50.10;33.03;;;;;;;2.40;57.67;95000.38;5006393;28;20271;-78
2022/01/17 02:31:32;;;;;;;50.90;34.40;;;;;;;2.34;57.82;94997.38;5006331;28;20415;-79
2022/01/17 02:33:57;;;;;;;49.20;28.70;;;;;;;2.63;57.36;94993.16;5006273;28;20511;-80
2022/01/17 02:36:23;;;;;;;48.13;32.27;;;;;;;2.46;57.62;94992.88;4990963;28;20181;-78
2022/01/17 02:38:49;;;;;;;58.40;33.63;;;;;;;2.46;57.86;94992.06;5007506;28;20200;-79
2022/01/17 02:41:15;;;;;;;52.50;35.17;;;;;;;0.99;61.89;95001.16;5007942;28;20184;-78
2022/01/17 02:43:41;;;;;;;44.57;30.20;;;;;;;2.11;58.85;94986.47;5007777;28;20229;-78
2022/01/17 02:48:38;;;;;;;43.73;29.97;;;;;;;2.14;58.06;94999.13;5008524;28;20216;-79
2022/01/17 02:51:04;;;;;;;48.53;31.85;;;;;;;2.24;58.05;94999.13;5007246;28;20161;-78
2022/01/17 02:53:31;;;;;;;40.93;29.37;;;;;;;2.31;56.86;94997.63;4989641;28;20203;-79
2022/01/17 02:56:06;;;;;;;46.45;29.98;;;;;;;2.33;57.11;94993.16;5007581;28;20423;-79
2022/01/17 02:58:34;;;;;;;51.58;30.10;;;;;;;2.36;57.64;95001.59;5006527;28;20197;-78
2022/01/17 03:01:04;;;;;;;46.35;29.00;;;;;;;2.73;56.15;95001.72;5007407;28;20200;-79
2022/01/17 03:03:31;;;;;;;47.70;32.03;;;;;;;2.34;57.52;95004.31;5012729;28;20199;-77
2022/01/17 03:05:58;;;;;;;44.47;32.70;;;;;;;2.38;56.97;94997.09;5009174;28;20215;-78
2022/01/17 03:08:27;;;;;;;49.58;29.58;;;;;;;2.79;56.08;94990.84;5009081;28;20227;-79
2022/01/17 03:10:54;;;;;;;38.70;26.70;;;;;;;2.47;56.02;94986.78;5027301;28;20184;-80
2022/01/17 03:13:25;;;;;;;45.10;26.70;;;;;;;2.61;55.30;94987.31;5027274;28;20415;-81
2022/01/17 03:15:57;;;;;;;49.73;30.83;;;;;;;2.42;55.73;94982.97;5010258;28;20439;-79
2022/01/17 03:18:29;;;;;;;39.27;25.03;;;;;;;2.00;56.67;94981.44;5010262;28;20489;-79
2022/01/17 03:20:55;;;;;;;44.55;28.10;;;;;;;2.26;55.96;94978.34;5027676;28;20419;-79
2022/01/17 03:23:21;;;;;;;44.90;29.77;;;;;;;2.20;56.35;94978.88;5026175;28;20342;-78
2022/01/17 03:25:47;;;;;;;41.23;26.80;;;;;;;2.30;55.82;94980.53;5026037;28;20208;-79
2022/01/17 03:28:13;;;;;;;42.97;28.03;;;;;;;2.65;55.04;94980.91;5026332;28;20216;-79
2022/01/17 03:30:38;;;;;;;41.00;28.80;;;;;;;2.60;55.12;94978.75;5009378;28;20191;-78
2022/01/17 03:33:06;;;;;;;39.93;26.80;;;;;;;3.05;53.83;94972.16;5026647;28;20184;-78
2022/01/17 03:35:32;;;;;;;43.28;27.50;;;;;;;2.77;55.32;94982.41;5010684;28;20204;-78
2022/01/17 03:37:58;;;;;;;42.57;27.83;;;;;;;2.66;54.74;94982.56;5027483;28;20325;-77
2022/01/17 03:40:23;;;;;;;41.70;26.37;;;;;;;2.63;54.75;94990.56;5026340;28;20192;-78
2022/01/17 03:42:49;;;;;;;33.53;23.57;;;;;;;2.47;54.10;94996.31;5007771;28;20180;-79
2022/01/17 03:45:15;;;;;;;33.53;23.40;;;;;;;2.45;54.56;94990.47;5026990;28;20283;-78
2022/01/17 03:47:44;;;;;;;45.27;29.70;;;;;;;1.50;57.70;95009.78;5010124;28;20211;-78
2022/01/17 03:50:14;;;;;;;47.30;30.33;;;;;;;2.03;56.94;95011.31;5026942;28;20222;-78
2022/01/17 03:52:40;;;;;;;36.42;23.45;;;;;;;2.59;55.22;95008.13;5008411;28;20172;-78
2022/01/17 03:55:12;;;;;;;33.33;24.45;;;;;;;2.36;55.54;95007.56;5026465;28;20183;-77
2022/01/17 03:57:37;;;;;;;30.17;21.75;;;;;;;2.20;56.06;95007.28;5029922;28;20232;-77
2022/01/17 04:00:06;;;;;;;40.97;26.03;;;;;;;2.03;56.13;95009.56;5028255;28;20520;-77
2022/01/17 04:02:31;;;;;;;36.92;25.17;;;;;;;2.12;56.28;95002.78;5029777;28;20248;-77
2022/01/17 04:04:57;;;;;;;45.93;27.27;;;;;;;2.08;55.97;94999.63;5012580;28;20223;-78
2022/01/17 04:07:22;;;;;;;34.93;24.73;;;;;;;2.12;56.72;95016.50;5012316;28;20243;-77
2022/01/17 04:09:48;;;;;;;41.03;26.23;;;;;;;2.10;55.82;95010.63;5029613;28;20263;-79
2022/01/17 04:12:13;;;;;;;31.83;21.27;;;;;;;2.34;55.84;95010.28;5029516;28;20214;-78
2022/01/17 04:14:39;;;;;;;34.50;23.80;;;;;;;2.13;55.70;95020.72;5011347;28;20259;-78
2022/01/17 04:17:06;;;;;;;53.63;25.40;;;;;;;2.70;54.07;95025.25;5029528;28;20200;-77
2022/01/17 04:19:32;;;;;;;36.00;26.70;;;;;;;2.37;54.62;95016.13;5029498;28;20276;-77
2022/01/17 04:21:57;;;;;;;35.07;23.47;;;;;;;2.60;54.18;95014.09;5011326;28;20248;-78
2022/01/17 04:24:24;;;;;;;32.67;20.57;;;;;;;1.96;56.17;95021.38;5029352;28;20462;-78
2022/01/17 04:26:49;;;;;;;43.47;26.27;;;;;;;2.08;55.84;95020.28;5030308;28;20671;-78
2022/01/17 04:29:15;;;;;;;39.07;28.00;;;;;;;1.97;56.56;95012.66;5029828;28;20164;-77
2022/01/17 04:31:40;;;;;;;36.50;24.93;;;;;;;1.99;56.49;95009.94;5011364;28;20570;-78
2022/01/17 04:34:06;;;;;;;42.27;29.30;;;;;;;1.98;55.84;95014.31;5028785;28;20259;-79
2022/01/17 04:36:32;;;;;;;44.20;26.47;;;;;;;2.12;56.04;95006.16;5028852;28;20180;-78
2022/01/17 04:38:57;;;;;;;34.30;26.10;;;;;;;2.12;55.57;94998.41;5028684;28;20279;-77
2022/01/17 04:41:34;;;;;;;21.80;16.13;;;;;;;2.13;55.72;94992.31;5028870;28;20214;-78
2022/01/17 04:45:07;;;;;;;34.67;23.08;;;;;;;2.29;55.55;94990.97;5029359;28;20160;-77
2022/01/17 04:46:45;;;;;;;36.53;25.25;;;;;;;2.31;55.52;94989.88;5029023;28;20191;-77
2022/01/17 04:49:10;;;;;;;35.13;23.40;;;;;;;2.00;56.33;95004.66;5028137;28;20192;-77
2022/01/17 04:51:37;;;;;;;32.10;24.33;;;;;;;2.17;56.38;94997.22;5028049;28;20192;-77
2022/01/17 04:56:47;;;;;;;29.52;23.45;;;;;;;2.11;55.59;94985.66;5030278;28;20595;-78
2022/01/17 04:59:12;;;;;;;34.83;21.80;;;;;;;2.10;55.04;94986.59;5013024;28;20188;-77
2022/01/17 05:01:38;;;;;;;38.30;24.27;;;;;;;2.06;55.55;94983.47;5029672;28;20199;-77
2022/01/17 05:04:03;;;;;;;35.00;23.10;;;;;;;2.00;55.27;94988.38;5030778;28;20176;-77
2022/01/17 05:06:29;;;;;;;33.37;21.80;;;;;;;2.19;55.10;94988.38;5030590;28;20259;-77
2022/01/17 05:08:54;;;;;;;29.17;20.00;;;;;;;2.26;54.69;94991.25;5028078;28;20192;-79
2022/01/17 05:11:24;;;;;;;39.93;25.70;;;;;;;2.29;54.86;94991.78;5029836;28;20192;-78
2022/01/17 05:13:50;;;;;;;33.60;23.60;;;;;;;2.24;54.09;94982.81;5027388;28;20184;-78
2022/01/17 05:16:17;;;;;;;30.10;20.63;;;;;;;2.36;53.99;94992.06;5011303;28;20184;-78
2022/01/17 05:21:08;;;;;;;40.33;27.47;;;;;;;1.90;55.45;94996.09;5027955;28;20222;-78
2022/01/17 05:23:33;;;;;;;47.87;28.57;;;;;;;2.08;55.13;94994.47;5010241;28;20279;-79
2022/01/17 05:25:59;;;;;;;43.37;28.20;;;;;;;2.16;54.33;95001.56;5027775;28;20211;-79
2022/01/17 05:28:24;;;;;;;52.60;28.33;;;;;;;2.10;55.18;95007.25;5028460;28;20234;-78
2022/01/17 05:30:50;;;;;;;41.60;26.63;;;;;;;2.53;54.03;95003.50;5028037;28;20189;-78
2022/01/17 05:33:15;;;;;;;42.30;27.10;;;;;;;2.78;53.10;95007.28;5028743;28;20263;-78
2022/01/17 05:35:41;;;;;;;47.73;27.80;;;;;;;2.31;54.47;94999.41;5028650;28;20679;-79
2022/01/17 05:38:07;;;;;;;50.13;29.30;;;;;;;2.26;55.10;94999.81;5012711;28;20190;-78
2022/01/17 05:40:32;;;;;;;22.90;16.30;;;;;;;2.45;54.52;94991.25;5011699;28;20195;-78
2022/01/17 05:42:58;;;;;;;44.67;31.80;;;;;;;2.29;54.66;95002.09;5028150;28;20176;-78
2022/01/17 05:45:24;;;;;;;41.10;27.33;;;;;;;2.34;55.35;95006.88;5026676;28;20216;-79
2022/01/17 05:47:50;;;;;;;43.80;27.17;;;;;;;2.34;54.79;95012.84;5025749;28;20190;-78
2022/01/17 05:50:16;;;;;;;40.58;27.70;;;;;;;2.68;54.42;95007.31;5007424;28;20483;-77
2022/01/17 05:52:43;;;;;;;43.80;28.88;;;;;;;2.27;55.29;95016.91;5007291;28;20181;-77
2022/01/17 05:55:11;;;;;;;40.92;27.52;;;;;;;2.13;55.83;95012.97;5006911;28;20212;-77
2022/01/17 05:57:36;;;;;;;43.60;27.00;;;;;;;2.37;55.31;95006.59;5005730;28;20211;-77
2022/01/17 06:00:05;;;;;;;48.67;31.33;;;;;;;1.67;56.53;95021.25;5007444;28;20185;-77
2022/01/17 06:02:31;;;;;;;45.10;27.77;;;;;;;2.22;54.95;95013.09;4990759;28;20258;-78
2022/01/17 06:04:56;;;;;;;47.67;28.33;;;;;;;2.53;54.97;95014.63;5026711;28;20280;-78
2022/01/17 06:07:22;;;;;;;45.17;31.47;;;;;;;2.20;55.51;95023.59;5026465;28;20184;-78
2022/01/17 06:09:47;;;;;;;41.70;28.50;;;;;;;2.24;55.91;95026.69;5026398;28;20191;-76
2022/01/17 06:12:13;;;;;;;45.87;31.80;;;;;;;2.36;55.40;95017.91;5007816;28;20418;-79
2022/01/17 06:14:39;;;;;;;56.00;36.27;;;;;;;2.22;55.53;95026.03;5009330;28;20423;-79
2022/01/17 06:17:05;;;;;;;47.90;33.70;;;;;;;2.36;55.45;95020.47;5010543;28;20303;-79
2022/01/17 06:19:31;;;;;;;55.90;33.25;;;;;;;2.09;55.58;95028.88;5009330;28;20235;-79
2022/01/17 06:21:57;;;;;;;57.87;32.30;;;;;;;2.51;55.67;95016.53;5009969;28;20183;-80
2022/01/17 06:24:23;;;;;;;52.20;33.30;;;;;;;2.37;54.83;95022.09;5026690;28;20242;-80
2022/01/17 06:26:50;;;;;;;49.15;34.40;;;;;;;2.52;55.03;95022.50;5026550;28;20172;-79
2022/01/17 06:29:15;;;;;;;52.70;34.92;;;;;;;2.96;54.01;95022.09;5009432;28;20243;-79
2022/01/17 06:31:42;;;;;;;47.77;34.43;;;;;;;2.79;54.34;95019.28;5029474;28;20199;-81
2022/01/17 06:34:09;;;;;;;48.33;33.60;;;;;;;2.84;53.37;95026.59;5028187;28;20235;-80
2022/01/17 06:36:35;;;;;;;45.90;30.73;;;;;;;3.12;53.28;95014.59;5009381;28;20176;-80
2022/01/17 06:39:01;;;;;;;53.38;36.60;;;;;;;3.06;53.17;95020.31;5009376;28;20492;-80
2022/01/17 06:41:26;;;;;;;57.83;37.20;;;;;;;2.90;53.57;95026.88;5026945;28;20183;-76
2022/01/17 06:43:52;;;;;;;57.70;37.07;;;;;;;2.95;53.03;95016.13;5008535;28;20342;-79
2022/01/17 06:46:17;;;;;;;54.60;35.30;;;;;;;2.89;52.75;95024.44;5025921;28;20199;-78
2022/01/17 06:48:46;;;;;;;44.67;33.00;;;;;;;3.13;52.45;95027.38;5025762;28;20192;-79
2022/01/17 06:51:12;;;;;;;58.75;34.45;;;;;;;3.30;51.92;95025.84;5008425;28;20214;-79
2022/01/17 06:53:38;;;;;;;50.97;33.33;;;;;;;3.19;52.46;95031.19;5008721;28;20184;-78
2022/01/17 06:56:04;;;;;;;57.00;34.63;;;;;;;3.23;52.78;95032.53;5008466;28;20176;-80
2022/01/17 06:58:31;;;;;;;55.70;34.67;;;;;;;3.31;52.00;95026.66;5007673;28;20712;-79
2022/01/17 07:00:56;;;;;;;40.63;30.52;;;;;;;3.85;50.40;95032.06;5026555;28;20415;-79
2022/01/17 07:03:27;;;;;;;58.83;33.17;;;;;;;3.45;51.65;95030.56;5026047;28;20238;-79
2022/01/17 07:05:53;;;;;;;46.50;32.73;;;;;;;3.62;51.12;95022.06;5026024;28;20203;-78
2022/01/17 07:08:18;;;;;;;69.90;35.20;;;;;;;3.74;50.98;95027.06;5025847;28;20433;-78
2022/01/17 07:10:44;;;;;;;48.10;34.58;;;;;;;3.57;50.95;95024.28;5026025;28;20436;-79
2022/01/17 07:13:10;;;;;;;45.27;27.10;;;;;;;3.70;49.88;95029.94;5026152;28;20677;-79
2022/01/17 07:15:35;;;;;;;52.60;32.17;;;;;;;3.93;50.07;95021.81;5025872;28;20175;-78
2022/01/17 07:18:02;;;;;;;50.17;32.67;;;;;;;3.34;50.98;95036.75;5025757;28;20419;-78
2022/01/17 07:20:28;;;;;;;39.77;26.73;;;;;;;3.10;51.52;95035.41;5026192;28;20240;-79
2022/01/17 07:22:53;;;;;;;42.60;25.70;;;;;;;3.31;51.01;95044.78;5008599;28;20470;-78
2022/01/17 07:25:18;;;;;;;38.63;23.30;;;;;;;3.76;50.02;95056.22;5027004;28;20214;-82
2022/01/17 07:27:44;;;;;;;32.00;21.57;;;;;;;3.94;49.46;95067.44;5008706;28;20243;-82
2022/01/17 07:30:10;;;;;;;37.73;23.97;;;;;;;4.24;48.56;95057.75;5007749;28;20250;-81
2022/01/17 07:32:37;;;;;;;35.57;18.10;;;;;;;4.27;47.98;95060.06;5007969;28;20188;-79
2022/01/17 07:35:05;;;;;;;25.70;17.57;;;;;;;3.88;48.68;95053.28;5027945;28;20442;-81
2022/01/17 07:37:31;;;;;;;22.00;16.50;;;;;;;4.33;48.24;95048.31;5011876;28;20411;-79
2022/01/17 07:39:56;;;;;;;17.13;13.30;;;;;;;4.53;47.88;95041.22;5029892;28;20434;-80
2022/01/17 07:42:22;;;;;;;18.03;11.63;;;;;;;4.59;47.44;95030.25;5029720;28;20231;-79
2022/01/17 07:44:53;;;;;;;25.27;13.30;;;;;;;4.43;47.25;95023.97;5011736;28;20212;-79
2022/01/17 07:47:27;;;;;;;15.67;10.00;;;;;;;4.50;44.90;95014.63;5012300;28;20204;-79
2022/01/17 07:49:52;;;;;;;17.13;6.93;;;;;;;4.91;42.15;95013.38;5022893;28;20483;-79
2022/01/17 07:52:18;;;;;;;4.33;3.90;;;;;;;5.25;40.83;95032.44;4992220;28;20438;-80
2022/01/17 07:54:47;;;;;;;7.63;5.90;;;;;;;5.30;40.99;95041.53;4991926;28;20208;-79
2022/01/17 07:57:13;;;;;;;8.73;5.43;;;;;;;5.64;40.30;95055.38;5009696;28;20546;-79
2022/01/17 07:59:39;;;;;;;25.97;6.37;;;;;;;6.27;40.41;95079.41;4992004;28;20420;-79
2022/01/17 08:02:05;;;;;;;10.47;4.87;;;;;;;6.12;41.27;95117.34;4992311;28;20450;-80
2022/01/17 08:04:30;;;;;;;9.80;5.80;;;;;;;6.24;41.57;95106.53;4991800;28;20432;-80
2022/01/17 08:06:57;;;;;;;10.53;5.90;;;;;;;6.37;42.48;95077.50;5009655;28;20415;-80
2022/01/17 08:09:26;;;;;;;16.63;4.57;;;;;;;6.28;42.50;95080.22;4992615;28;20189;-81
2022/01/17 08:11:52;;;;;;;6.70;4.47;;;;;;;6.31;42.15;95044.34;4992618;28;20423;-81
2022/01/17 08:14:18;;;;;;;6.10;4.30;;;;;;;6.16;42.61;95023.34;4992563;28;20412;-81
2022/01/17 08:16:44;;;;;;;6.43;5.00;;;;;;;6.57;41.75;95007.84;5009948;28;20414;-81
2022/01/17 08:19:09;;;;;;;6.73;4.67;;;;;;;6.21;42.46;95018.50;5011582;28;20181;-80
2022/01/17 08:21:35;;;;;;;6.20;4.07;;;;;;;7.03;40.93;95012.59;5029337;28;20180;-81
2022/01/17 08:24:00;;;;;;;11.50;5.20;;;;;;;6.73;41.37;95003.63;5024853;28;20247;-82
2022/01/17 08:26:26;;;;;;;19.20;6.37;;;;;;;7.22;40.78;95043.47;5019770;28;20212;-80
2022/01/17 08:28:52;;;;;;;8.00;5.90;;;;;;;7.34;39.61;95071.78;5028917;28;20180;-80
2022/01/17 08:31:18;;;;;;;9.73;6.53;;;;;;;7.10;40.28;95086.44;5011414;28;20523;-79
2022/01/17 08:33:45;;;;;;;5.13;3.57;;;;;;;7.16;39.83;95100.59;5011956;28;20264;-81
2022/01/17 08:36:11;;;;;;;9.43;6.17;;;;;;;7.07;39.39;95114.56;5011344;28;20438;-81
2022/01/17 08:38:39;;;;;;;9.57;5.93;;;;;;;7.45;38.18;95122.72;5029735;28;20416;-80
2022/01/17 08:41:05;;;;;;;11.27;5.13;;;;;;;7.52;37.51;95082.84;5012122;28;20463;-82
2022/01/17 08:43:34;;;;;;;19.30;7.00;;;;;;;7.68;37.40;95070.78;5012250;28;20418;-80
2022/01/17 08:46:00;;;;;;;9.10;4.97;;;;;;;7.93;37.20;95079.34;5028908;28;20223;-81
2022/01/17 08:48:26;;;;;;;7.67;5.43;;;;;;;7.30;37.92;95036.66;5008061;28;20451;-79
2022/01/17 08:50:51;;;;;;;7.17;5.87;;;;;;;7.37;37.06;95037.63;5028963;28;20492;-80
2022/01/17 08:53:41;;;;;;;21.00;5.80;;;;;;;7.38;37.77;95023.59;5032604;28;20187;-89
2022/01/17 08:56:07;;;;;;;5.33;4.07;;;;;;;7.23;37.47;94972.25;5016544;28;20233;-81
2022/01/17 09:09:29;;;;;;;22.00;4.83;;;;;;;7.70;37.61;94917.75;4933835;28;20427;-84
2022/01/17 09:11:57;;;;;;;3.07;2.47;;;;;;;7.79;38.03;94917.53;4931148;29;20991;-83
2022/01/17 09:14:29;;;;;;;7.93;3.30;;;;;;;7.46;37.47;94909.06;4917519;29;20438;-83
2022/01/17 09:16:55;;;;;;;10.03;4.03;;;;;;;7.97;37.44;94917.28;4981502;28;20522;-80
2022/01/17 09:19:20;;;;;;;12.87;6.53;;;;;;;8.19;36.58;94920.09;5013070;28;20420;-81
2022/01/17 09:21:46;;;;;;;6.50;4.33;;;;;;;8.26;37.16;94915.81;5010435;28;20212;-81
2022/01/17 09:24:11;;;;;;;5.63;4.63;;;;;;;8.75;35.82;94901.63;4989626;28;20237;-79
2022/01/17 09:26:37;;;;;;;6.63;5.03;;;;;;;8.54;36.25;94905.72;5004519;28;20257;-80
2022/01/17 09:29:03;;;;;;;8.27;6.27;;;;;;;8.25;37.29;94914.19;4988312;28;20229;-80
2022/01/17 09:31:28;;;;;;;10.20;5.03;;;;;;;8.19;36.33;94935.72;4992085;28;20185;-81
2022/01/17 09:33:54;;;;;;;7.77;5.47;;;;;;;8.79;36.48;94931.59;4991900;28;20192;-81
2022/01/17 09:36:21;;;;;;;9.40;4.70;;;;;;;8.65;36.94;94930.56;4991238;28;20189;-81
2022/01/17 09:38:46;;;;;;;30.87;10.40;;;;;;;8.27;37.35;94959.16;5008427;28;20194;-81
2022/01/17 09:41:12;;;;;;;11.50;5.70;;;;;;;8.50;36.87;94940.13;4990911;28;20409;-81
2022/01/17 09:43:38;;;;;;;6.50;5.70;;;;;;;8.38;37.73;94960.53;4992332;28;20196;-82
2022/01/17 09:46:05;;;;;;;19.43;6.13;;;;;;;8.88;36.82;94961.03;5011314;28;20490;-84
2022/01/17 09:48:38;;;;;;;14.80;6.37;;;;;;;8.85;36.93;94953.56;5008492;28;20431;-81
2022/01/17 09:51:17;;;;;;;14.90;6.57;;;;;;;9.32;36.50;94952.50;5007902;28;20451;-81
2022/01/17 09:53:44;;;;;;;13.13;8.30;;;;;;;8.75;37.26;94966.84;5007973;28;20401;-81
2022/01/17 09:56:11;;;;;;;8.87;5.90;;;;;;;8.99;38.18;94955.38;4990529;28;20419;-81
2022/01/17 09:58:39;;;;;;;15.70;6.27;;;;;;;9.02;37.61;94947.22;5005688;28;20439;-80
2022/01/17 10:01:07;;;;;;;4.13;3.83;;;;;;;9.39;37.52;94969.06;5007314;28;20415;-77
2022/01/17 10:03:33;;;;;;;8.33;5.40;;;;;;;9.64;37.29;94951.34;4989219;28;20436;-79
2022/01/17 10:06:06;;;;;;;15.20;6.17;;;;;;;9.90;36.77;94950.03;4989826;28;20551;-81
2022/01/17 10:08:31;;;;;;;10.00;5.67;;;;;;;9.42;37.69;94958.25;4993264;28;20439;-80
2022/01/17 10:14:23;;;;;;;18.23;8.80;;;;;;;7.28;46.65;94947.50;5013505;28;20216;-84
2022/01/17 10:16:49;;;;;;;12.67;6.87;;;;;;;7.55;46.40;94983.56;4994311;28;20444;-80
2022/01/17 10:19:27;;;;;;;9.13;6.70;;;;;;;8.11;45.96;94991.31;4994809;28;20431;-79
2022/01/17 10:25:55;;;;;;;13.50;6.47;;;;;;;7.31;48.58;94968.00;5006790;28;20470;-80
2022/01/17 10:36:57;;;;;;;12.07;6.20;;;;;;;7.78;46.72;94954.19;5052493;28;20381;-79
2022/01/17 10:39:57;;;;;;;8.40;6.30;;;;;;;7.89;47.04;94953.81;5050881;28;20477;-82
2022/01/17 10:42:27;;;;;;;8.87;6.30;;;;;;;7.85;45.88;94943.88;5047146;28;20402;-81
2022/01/17 10:44:54;;;;;;;6.00;5.50;;;;;;;7.35;48.04;94951.88;5030570;28;20458;-79
2022/01/17 10:47:29;;;;;;;7.60;6.83;;;;;;;7.74;47.29;94952.88;5028635;28;20414;-80
2022/01/17 10:50:01;;;;;;;11.10;8.07;;;;;;;8.05;46.46;94937.28;5029028;28;20421;-79
2022/01/17 10:52:35;;;;;;;13.23;6.70;;;;;;;7.81;46.42;94943.41;5046315;28;20481;-79
2022/01/17 10:55:08;;;;;;;6.13;5.53;;;;;;;8.09;46.15;94956.00;5046764;28;20477;-80
2022/01/17 10:57:40;;;;;;;8.03;6.97;;;;;;;8.30;45.12;94958.81;5046371;28;20405;-78
2022/01/17 11:00:15;;;;;;;5.67;5.20;;;;;;;7.90;44.85;94960.63;5046142;28;20418;-79
2022/01/17 11:02:45;;;;;;;9.23;6.80;;;;;;;8.23;43.53;94937.00;5028543;28;20460;-79
2022/01/17 11:05:13;;;;;;;6.77;6.13;;;;;;;8.57;42.84;94941.88;5028465;28;20511;-79
2022/01/17 11:22:12;;;;;;;5.67;4.47;;;;;;;8.99;40.74;94921.47;5055675;28;20210;-83
2022/01/17 11:24:38;;;;;;;4.57;4.17;;;;;;;9.39;40.31;94916.84;5039302;28;20644;-82
2022/01/17 11:27:13;;;;;;;6.97;4.83;;;;;;;9.25;40.13;94904.56;5036668;28;20433;-80
2022/01/17 11:30:06;;;;;;;5.13;4.63;;;;;;;8.89;40.96;94900.03;5054271;28;20405;-82
2022/01/17 11:32:32;;;;;;;8.40;5.77;;;;;;;8.88;40.90;94899.22;5034937;28;21016;-83
2022/01/17 11:35:02;;;;;;;10.47;5.07;;;;;;;8.91;40.75;94898.06;5054066;28;20424;-82
2022/01/17 11:37:33;;;;;;;4.20;3.20;;;;;;;8.34;41.34;94888.88;5052510;28;20406;-82
2022/01/17 11:39:59;;;;;;;3.50;3.27;;;;;;;8.75;41.40;94905.03;5052464;28;20418;-80
2022/01/17 11:42:52;;;;;;;5.20;4.70;;;;;;;9.13;40.29;94918.06;5031847;28;20452;-81
2022/01/17 11:45:23;;;;;;;4.93;4.43;;;;;;;9.24;39.89;94924.66;5029033;28;20564;-81
2022/01/17 11:47:51;;;;;;;5.40;4.90;;;;;;;8.56;40.58;94919.38;5033619;28;20418;-82
2022/01/17 11:50:30;;;;;;;4.13;2.90;;;;;;;8.85;40.94;94909.22;5050873;28;20444;-81
2022/01/17 11:53:09;;;;;;;6.90;5.80;;;;;;;8.61;40.89;94916.25;5034040;28;20398;-80
2022/01/17 11:55:44;;;;;;;6.07;4.73;;;;;;;9.27;40.10;94903.41;5034734;28;20398;-80
2022/01/17 11:58:30;;;;;;;4.40;3.97;;;;;;;8.85;41.13;94896.16;5051071;28;20400;-80
2022/01/17 12:01:01;;;;;;;4.83;4.33;;;;;;;8.26;41.23;94853.25;5050070;28;20520;-81
2022/01/17 12:03:42;;;;;;;9.93;4.30;;;;;;;7.27;43.86;94876.41;5033110;28;20429;-88
2022/01/17 12:09:30;;;;;;;7.60;6.77;;;;;;;8.60;41.59;94901.59;5051000;28;21016;-81
2022/01/17 12:11:56;;;;;;;10.27;7.60;;;;;;;8.90;41.39;94891.22;5049332;28;20440;-81
2022/01/17 12:14:32;;;;;;;8.73;7.20;;;;;;;9.12;40.33;94892.13;5049089;28;20180;-81
2022/01/17 12:17:19;;;;;;;7.87;6.80;;;;;;;9.81;38.38;94878.78;5050307;28;20167;-80
2022/01/17 12:20:03;;;;;;;10.63;9.57;;;;;;;9.17;39.96;94848.03;5032014;28;20484;-81
2022/01/17 12:22:38;;;;;;;5.67;5.07;;;;;;;9.24;40.49;94866.38;5050040;28;20410;-80
2022/01/17 12:25:25;;;;;;;10.87;6.27;;;;;;;8.25;42.21;94871.66;5051374;28;20868;-81
2022/01/17 12:28:13;;;;;;;8.43;7.70;;;;;;;8.22;42.20;94831.13;5027852;28;20418;-80
2022/01/17 12:30:54;;;;;;;12.17;10.77;;;;;;;8.47;40.90;94829.16;5033179;28;20823;-80
2022/01/17 12:33:40;;;;;;;7.37;6.63;;;;;;;8.39;41.46;94840.44;5033847;28;20406;-81
2022/01/17 12:36:29;;;;;;;8.33;6.80;;;;;;;8.74;41.54;94855.63;5034341;28;20398;-80
2022/01/17 12:39:25;;;;;;;5.73;4.90;;;;;;;7.53;43.33;94842.31;5052195;28;20419;-80
2022/01/17 12:41:59;;;;;;;9.33;8.10;;;;;;;7.55;43.85;94829.94;5032519;28;20406;-80